Time;durP1;ratioP1;P1;durP2;ratioP2;P2;SDS_P1;SDS_P2;PMS_P1;PMS_P2;Temp;Humidity;BMP_temperature;BMP_pressure;BME280_temperature;BME280_humidity;BME280_pressure;Samples;Min_cycle;Max_cycle;Signal;HPM_P1;HPM_P2
2023/08/22 00:01:56;;;;;;;9.48;4.35;;;19.60;99.90;;;;;;5059274;28;20053;-63
2023/08/22 00:04:24;;;;;;;6.50;4.03;;;19.60;99.90;;;;;;5055631;28;20064;-62
2023/08/22 00:06:50;;;;;;;8.05;4.50;;;19.50;99.90;;;;;;5072450;28;20052;-61
2023/08/22 00:09:18;;;;;;;5.47;3.72;;;19.50;99.90;;;;;;5073456;28;20157;-62
2023/08/22 00:11:50;;;;;;;6.40;4.13;;;19.40;99.90;;;;;;5065187;28;20428;-63
2023/08/22 00:14:17;;;;;;;7.22;4.05;;;19.30;99.90;;;;;;5072771;28;20370;-62
2023/08/22 00:16:44;;;;;;;7.13;3.90;;;19.40;99.90;;;;;;5072354;28;20052;-62
2023/08/22 00:19:10;;;;;;;7.20;3.92;;;19.30;99.90;;;;;;5072563;28;20495;-62
2023/08/22 00:21:36;;;;;;;7.10;4.15;;;19.20;99.90;;;;;;5078666;28;20074;-62
2023/08/22 00:24:03;;;;;;;6.68;4.13;;;19.10;99.90;;;;;;5072968;28;20109;-62
2023/08/22 00:26:29;;;;;;;7.53;4.38;;;19.00;99.90;;;;;;5054560;28;20040;-62
2023/08/22 00:28:55;;;;;;;6.13;4.72;;;18.90;99.90;;;;;;5072482;28;20045;-63
2023/08/22 00:31:21;;;;;;;6.97;4.55;;;18.90;99.90;;;;;;5082782;28;20043;-62
2023/08/22 00:33:49;;;;;;;7.68;4.22;;;18.80;99.90;;;;;;5075141;28;20527;-62
2023/08/22 00:36:16;;;;;;;8.73;4.30;;;18.80;99.90;;;;;;5074629;28;20079;-62
2023/08/22 00:38:42;;;;;;;6.85;4.50;;;18.90;99.90;;;;;;5092270;28;20457;-62
2023/08/22 00:41:09;;;;;;;7.97;4.60;;;18.80;99.90;;;;;;5083380;28;20059;-62
2023/08/22 00:43:35;;;;;;;10.45;4.53;;;18.70;99.90;;;;;;5055064;28;20113;-62
2023/08/22 00:46:01;;;;;;;7.60;4.68;;;18.80;99.90;;;;;;5071677;28;20346;-62
2023/08/22 00:48:28;;;;;;;7.65;4.63;;;18.80;99.90;;;;;;5072349;28;20052;-64
2023/08/22 00:50:54;;;;;;;9.95;4.65;;;18.70;99.90;;;;;;5077910;28;20097;-62
2023/08/22 00:53:20;;;;;;;7.20;4.93;;;18.70;99.90;;;;;;5092724;28;20430;-62
2023/08/22 00:55:46;;;;;;;7.63;4.32;;;18.70;99.90;;;;;;5092315;28;20048;-62
2023/08/22 00:58:14;;;;;;;7.55;4.57;;;18.70;99.90;;;;;;5093352;28;20143;-62
2023/08/22 01:00:40;;;;;;;7.03;4.78;;;18.70;99.90;;;;;;5069265;28;20062;-63
2023/08/22 01:03:06;;;;;;;6.25;4.35;;;18.60;99.90;;;;;;5072319;28;20123;-63
2023/08/22 01:05:37;;;;;;;8.98;4.82;;;18.60;99.90;;;;;;5071625;28;20055;-62
2023/08/22 01:08:16;;;;;;;7.65;4.20;;;18.60;99.90;;;;;;5072128;28;20044;-62
2023/08/22 01:10:50;;;;;;;8.27;4.55;;;18.60;99.90;;;;;;5059023;28;20058;-62
2023/08/22 01:13:34;;;;;;;7.05;4.88;;;18.60;99.90;;;;;;5074559;28;20044;-62
2023/08/22 01:16:11;;;;;;;9.82;5.30;;;18.50;99.90;;;;;;5091963;28;20101;-63
2023/08/22 01:18:39;;;;;;;9.48;5.40;;;18.50;99.90;;;;;;5091943;28;20040;-62
2023/08/22 01:21:05;;;;;;;6.60;5.53;;;18.50;99.90;;;;;;5083311;28;20102;-63
2023/08/22 01:23:52;;;;;;;8.10;5.85;;;18.50;99.90;;;;;;5071532;28;20055;-62
2023/08/22 01:26:18;;;;;;;8.75;5.85;;;18.50;99.90;;;;;;5037311;28;20056;-63
2023/08/22 01:28:46;;;;;;;10.07;6.45;;;18.50;99.90;;;;;;5054052;28;20335;-62
2023/08/22 01:31:56;;;;;;;10.77;6.82;;;18.50;99.90;;;;;;5079766;28;20051;-62
2023/08/22 01:34:35;;;;;;;7.50;6.50;;;18.60;99.90;;;;;;4973996;28;20046;-63
2023/08/22 01:37:03;;;;;;;9.68;6.75;;;18.50;99.90;;;;;;4989733;28;20177;-62
2023/08/22 01:39:31;;;;;;;11.20;7.15;;;18.50;99.90;;;;;;4990075;28;20072;-62
2023/08/22 01:41:58;;;;;;;10.73;7.20;;;18.50;99.90;;;;;;4975420;28;20076;-63
2023/08/22 01:44:30;;;;;;;10.60;6.88;;;18.50;99.90;;;;;;4971207;28;20065;-63
2023/08/22 01:46:57;;;;;;;8.32;6.70;;;18.60;99.90;;;;;;5068893;28;20387;-63
2023/08/22 01:49:23;;;;;;;8.77;6.63;;;18.60;99.90;;;;;;5071355;28;20041;-62
2023/08/22 01:51:49;;;;;;;9.85;7.63;;;18.50;99.90;;;;;;5084436;28;20044;-63
2023/08/22 01:54:15;;;;;;;9.45;7.72;;;18.50;99.90;;;;;;5092019;28;20477;-62
2023/08/22 01:56:41;;;;;;;10.20;8.13;;;18.50;99.90;;;;;;5091397;28;20040;-63
2023/08/22 01:59:08;;;;;;;13.52;9.00;;;18.50;99.90;;;;;;5091467;28;20059;-62
2023/08/22 02:01:34;;;;;;;11.68;8.52;;;18.50;99.90;;;;;;5079410;28;20052;-62
2023/08/22 02:04:03;;;;;;;11.07;8.38;;;18.50;99.90;;;;;;5053706;28;20052;-62
2023/08/22 02:06:31;;;;;;;10.90;8.00;;;18.50;99.90;;;;;;5070480;28;20040;-63
2023/08/22 02:08:57;;;;;;;10.93;8.23;;;18.50;99.90;;;;;;5071426;28;20044;-63
2023/08/22 02:11:24;;;;;;;10.88;8.75;;;18.50;99.90;;;;;;5080881;28;20051;-62
2023/08/22 02:13:50;;;;;;;11.88;8.52;;;18.40;99.90;;;;;;5091731;28;20048;-62
2023/08/22 02:16:16;;;;;;;11.82;8.65;;;18.40;99.90;;;;;;5073253;28;20056;-62
2023/08/22 02:18:43;;;;;;;11.77;9.32;;;18.40;99.90;;;;;;5091627;28;20040;-62
2023/08/22 02:21:09;;;;;;;11.50;8.52;;;18.40;99.90;;;;;;5072145;28;20511;-62
2023/08/22 02:23:35;;;;;;;12.23;8.57;;;18.40;99.90;;;;;;5073877;28;20052;-62
2023/08/22 02:26:01;;;;;;;11.55;9.00;;;18.30;99.90;;;;;;5091261;28;20044;-61
2023/08/22 02:28:27;;;;;;;12.20;9.18;;;18.20;99.90;;;;;;5073387;28;20040;-62
2023/08/22 02:30:55;;;;;;;11.77;9.13;;;18.20;99.90;;;;;;5085336;28;20102;-62
2023/08/22 02:33:21;;;;;;;13.55;9.25;;;18.10;99.90;;;;;;5053616;28;20109;-62
2023/08/22 02:35:48;;;;;;;12.73;9.55;;;18.10;99.90;;;;;;5054006;28;20056;-62
2023/08/22 02:38:14;;;;;;;11.35;8.80;;;18.10;99.90;;;;;;5056994;28;20068;-62
2023/08/22 02:40:40;;;;;;;12.82;9.35;;;18.20;99.90;;;;;;5040394;28;20143;-62
2023/08/22 02:43:07;;;;;;;12.02;8.77;;;18.10;99.90;;;;;;5073774;28;20068;-62
2023/08/22 02:45:33;;;;;;;14.60;8.90;;;18.10;99.90;;;;;;5072856;28;20124;-62
2023/08/22 02:47:59;;;;;;;12.90;9.82;;;18.10;99.90;;;;;;5074838;28;20045;-62
2023/08/22 02:50:25;;;;;;;14.80;9.32;;;18.00;99.90;;;;;;5092348;28;20070;-62
2023/08/22 02:52:52;;;;;;;12.70;9.05;;;18.00;99.90;;;;;;5040573;28;20461;-63
2023/08/22 02:55:18;;;;;;;10.30;8.75;;;17.90;99.90;;;;;;5074059;28;20061;-62
2023/08/22 02:57:45;;;;;;;13.48;9.50;;;18.00;99.90;;;;;;5056734;28;20110;-62
2023/08/22 03:00:12;;;;;;;11.32;8.10;;;18.00;99.90;;;;;;5056300;28;20121;-62
2023/08/22 03:02:39;;;;;;;12.38;9.10;;;18.00;99.90;;;;;;5073350;28;20575;-62
2023/08/22 03:05:13;;;;;;;10.75;7.90;;;17.90;99.90;;;;;;5075760;28;20060;-62
2023/08/22 03:07:40;;;;;;;10.95;8.77;;;18.00;99.90;;;;;;5094534;28;20413;-63
2023/08/22 03:10:10;;;;;;;11.20;9.02;;;18.10;99.90;;;;;;5094789;28;20055;-63
2023/08/22 03:12:36;;;;;;;12.30;8.48;;;18.10;99.90;;;;;;5093273;28;20438;-62
2023/08/22 03:15:03;;;;;;;11.63;8.65;;;18.10;99.90;;;;;;5074267;28;20048;-62
2023/08/22 03:17:29;;;;;;;13.13;8.65;;;18.10;99.90;;;;;;5074615;28;20178;-62
2023/08/22 03:19:55;;;;;;;12.95;9.07;;;18.20;99.90;;;;;;5056519;28;20044;-63
2023/08/22 03:22:23;;;;;;;13.50;9.25;;;18.10;99.90;;;;;;5073435;28;20052;-62
2023/08/22 03:24:49;;;;;;;13.27;9.38;;;18.10;99.90;;;;;;5059457;28;20058;-63
2023/08/22 03:27:15;;;;;;;11.95;9.20;;;18.10;99.90;;;;;;5076337;28;20322;-62
2023/08/22 03:29:42;;;;;;;11.15;9.57;;;18.00;99.90;;;;;;5075973;28;20449;-62
2023/08/22 03:32:09;;;;;;;13.05;9.20;;;18.00;99.90;;;;;;5077878;28;20198;-62
2023/08/22 03:34:35;;;;;;;13.75;9.50;;;18.10;99.90;;;;;;5073028;28;20411;-63
2023/08/22 03:37:03;;;;;;;12.15;10.30;;;18.10;99.90;;;;;;5055828;28;20052;-63
2023/08/22 03:39:29;;;;;;;12.77;9.60;;;18.00;99.90;;;;;;5073441;28;20045;-62
2023/08/22 03:41:55;;;;;;;14.23;9.48;;;18.00;99.90;;;;;;5086138;28;20482;-62
2023/08/22 03:44:23;;;;;;;13.75;10.13;;;17.90;99.90;;;;;;5076275;28;20452;-62
2023/08/22 03:46:49;;;;;;;13.38;10.30;;;17.90;99.90;;;;;;5093509;28;20052;-63
2023/08/22 03:49:16;;;;;;;12.70;10.32;;;17.90;99.90;;;;;;5093907;28;20604;-62
2023/08/22 03:51:43;;;;;;;13.07;10.95;;;17.80;99.90;;;;;;5063403;28;20045;-62
2023/08/22 03:54:10;;;;;;;12.80;10.95;;;17.80;99.90;;;;;;5055372;28;20543;-62
2023/08/22 03:56:36;;;;;;;13.85;10.57;;;17.90;99.90;;;;;;5072918;28;20060;-62
2023/08/22 03:59:02;;;;;;;14.68;10.57;;;17.80;99.90;;;;;;5055715;28;20049;-62
2023/08/22 04:01:29;;;;;;;12.50;10.25;;;17.70;99.90;;;;;;5082138;28;20051;-62
2023/08/22 04:03:55;;;;;;;15.25;10.40;;;17.70;99.90;;;;;;5093605;28;20117;-63
2023/08/22 04:06:22;;;;;;;15.15;10.25;;;17.80;99.90;;;;;;5092971;28;20142;-62
2023/08/22 04:08:48;;;;;;;13.30;10.23;;;17.70;99.90;;;;;;5093877;28;20298;-63
2023/08/22 04:11:15;;;;;;;16.40;10.95;;;17.70;99.90;;;;;;5085322;28;20457;-62
2023/08/22 04:13:41;;;;;;;13.52;10.38;;;17.60;99.90;;;;;;5073078;28;20051;-62
2023/08/22 04:16:08;;;;;;;14.38;10.60;;;17.70;99.90;;;;;;5072808;28;20048;-62
2023/08/22 04:18:34;;;;;;;14.45;10.38;;;17.60;99.90;;;;;;5055889;28;20110;-61
2023/08/22 04:21:02;;;;;;;15.13;10.88;;;17.60;99.90;;;;;;5077421;28;20052;-62
2023/08/22 04:23:28;;;;;;;13.63;10.13;;;17.50;99.90;;;;;;5075384;28;20082;-62
2023/08/22 04:25:55;;;;;;;12.82;9.93;;;17.40;99.90;;;;;;5092497;28;20052;-61
2023/08/22 04:28:21;;;;;;;13.13;10.45;;;17.40;99.90;;;;;;5093343;28;20052;-61
2023/08/22 04:30:47;;;;;;;11.77;10.07;;;17.40;99.90;;;;;;5088519;28;20048;-62
2023/08/22 04:33:13;;;;;;;13.65;10.32;;;17.40;99.90;;;;;;5072407;28;20094;-62
2023/08/22 04:35:41;;;;;;;12.25;10.30;;;17.40;99.90;;;;;;5071830;28;20446;-63
2023/08/22 04:38:08;;;;;;;13.52;10.80;;;17.30;99.90;;;;;;5054590;28;20087;-62
2023/08/22 04:40:36;;;;;;;12.93;10.27;;;17.30;99.90;;;;;;5073356;28;20109;-62
2023/08/22 04:43:03;;;;;;;12.57;10.50;;;17.40;99.90;;;;;;5058037;28;20048;-61
2023/08/22 04:45:30;;;;;;;11.77;10.10;;;17.30;99.90;;;;;;5092459;28;20457;-61
2023/08/22 04:47:57;;;;;;;11.77;9.77;;;17.20;99.90;;;;;;5075269;28;20123;-62
2023/08/22 04:50:24;;;;;;;14.82;10.25;;;17.30;99.90;;;;;;5073828;28;20055;-62
2023/08/22 04:52:51;;;;;;;11.63;10.15;;;17.30;99.90;;;;;;5051534;28;20089;-63
2023/08/22 04:55:17;;;;;;;13.10;9.70;;;17.30;99.90;;;;;;5051787;28;20476;-62
2023/08/22 04:57:44;;;;;;;13.07;9.10;;;17.20;99.90;;;;;;5034640;28;20048;-62
2023/08/22 05:00:11;;;;;;;12.32;10.00;;;17.30;99.90;;;;;;5052006;28;20121;-62
2023/08/22 05:02:37;;;;;;;12.45;9.07;;;17.30;99.90;;;;;;5089998;28;20055;-62
2023/08/22 05:05:06;;;;;;;14.18;9.85;;;17.20;99.90;;;;;;5073657;28;20357;-63
2023/08/22 05:07:32;;;;;;;14.07;9.02;;;17.20;99.90;;;;;;5092490;28;20044;-62
2023/08/22 05:09:58;;;;;;;10.85;8.60;;;17.30;99.90;;;;;;5092571;28;20040;-63
2023/08/22 05:12:25;;;;;;;12.48;9.18;;;17.30;99.90;;;;;;5057292;28;20049;-63
2023/08/22 05:14:51;;;;;;;12.43;9.07;;;17.40;99.90;;;;;;5071819;28;20453;-62
2023/08/22 05:17:18;;;;;;;11.60;8.85;;;17.50;99.90;;;;;;5072191;28;20086;-63
2023/08/22 05:19:45;;;;;;;12.73;8.27;;;17.60;99.90;;;;;;5037694;28;20059;-62
2023/08/22 05:22:12;;;;;;;10.10;7.55;;;17.70;99.90;;;;;;5086311;28;20048;-63
2023/08/22 05:24:38;;;;;;;10.65;8.00;;;17.80;99.90;;;;;;5074211;28;20778;-64
2023/08/22 05:27:04;;;;;;;11.23;8.40;;;18.00;99.90;;;;;;5092417;28;20105;-63
2023/08/22 05:29:30;;;;;;;11.50;7.75;;;18.40;99.90;;;;;;5092330;28;20062;-63
2023/08/22 05:31:58;;;;;;;15.70;8.52;;;18.60;99.90;;;;;;5079028;28;20170;-63
2023/08/22 05:34:24;;;;;;;11.35;7.60;;;18.70;99.90;;;;;;5071389;28;20053;-63
2023/08/22 05:36:50;;;;;;;11.93;7.80;;;18.80;99.90;;;;;;5071798;28;20056;-63
2023/08/22 05:39:16;;;;;;;11.55;7.28;;;18.80;99.90;;;;;;5072088;28;20125;-62
2023/08/22 05:41:43;;;;;;;9.60;7.40;;;18.90;99.90;;;;;;5082192;28;20045;-63
2023/08/22 05:44:10;;;;;;;8.60;7.10;;;18.80;99.90;;;;;;5074306;28;20060;-63
2023/08/22 05:46:36;;;;;;;10.68;7.20;;;18.80;99.90;;;;;;5091510;28;20048;-63
2023/08/22 05:49:03;;;;;;;10.60;7.50;;;18.90;99.90;;;;;;5074128;28;20051;-62
2023/08/22 05:51:30;;;;;;;10.52;7.45;;;18.90;99.90;;;;;;5065019;28;20056;-63
2023/08/22 05:53:56;;;;;;;9.77;6.93;;;18.90;99.90;;;;;;5071702;28;20122;-62
2023/08/22 05:56:22;;;;;;;9.40;7.43;;;19.50;99.90;;;;;;5071315;28;20071;-63
2023/08/22 05:58:49;;;;;;;12.77;6.82;;;20.60;99.90;;;;;;5071426;28;20445;-63
2023/08/22 06:01:15;;;;;;;9.23;6.38;;;21.80;99.90;;;;;;5077798;28;20040;-63
2023/08/22 06:03:41;;;;;;;11.30;6.63;;;22.40;99.90;;;;;;5092148;28;20048;-63
2023/08/22 06:06:07;;;;;;;9.45;6.07;;;22.30;99.90;;;;;;5091161;28;20066;-63
2023/08/22 06:08:34;;;;;;;10.38;6.35;;;22.00;99.90;;;;;;5091574;28;20422;-63
2023/08/22 06:11:01;;;;;;;9.77;6.53;;;22.10;99.90;;;;;;5069831;28;20406;-63
2023/08/22 06:13:27;;;;;;;8.27;5.80;;;22.30;99.90;;;;;;5075173;28;20044;-62
2023/08/22 06:15:56;;;;;;;9.35;6.30;;;22.60;99.90;;;;;;5074905;28;20052;-63
2023/08/22 06:18:24;;;;;;;6.93;5.72;;;22.70;99.90;;;;;;5040750;28;20048;-63
2023/08/22 06:20:50;;;;;;;7.28;5.80;;;22.70;99.90;;;;;;5077473;28;20353;-63
2023/08/22 06:23:17;;;;;;;9.40;5.93;;;22.40;99.90;;;;;;5077822;28;20092;-63
2023/08/22 06:25:45;;;;;;;10.30;6.05;;;22.30;99.90;;;;;;5076535;28;20447;-63
2023/08/22 06:28:12;;;;;;;9.93;6.15;;;22.40;99.90;;;;;;5095366;28;20044;-64
2023/08/22 06:30:38;;;;;;;10.77;6.00;;;22.70;99.90;;;;;;5093736;28;20124;-62
2023/08/22 06:33:05;;;;;;;8.57;5.82;;;23.00;99.90;;;;;;5075448;28;20044;-63
2023/08/22 06:35:32;;;;;;;6.80;5.88;;;23.60;99.90;;;;;;5057362;28;20051;-63
2023/08/22 06:37:59;;;;;;;9.18;5.70;;;24.20;99.90;;;;;;5040517;28;20449;-63
2023/08/22 06:40:26;;;;;;;11.18;5.60;;;24.60;99.90;;;;;;5075843;28;20322;-63
2023/08/22 06:42:52;;;;;;;9.27;5.85;;;24.70;99.90;;;;;;5057548;28;20056;-63
2023/08/22 06:45:19;;;;;;;9.82;5.97;;;24.60;99.90;;;;;;5057047;28;20159;-62
2023/08/22 06:47:46;;;;;;;11.32;5.93;;;24.00;99.90;;;;;;5057693;28;20041;-62
2023/08/22 06:50:12;;;;;;;11.73;6.68;;;23.50;99.90;;;;;;5075078;28;20444;-62
2023/08/22 06:52:39;;;;;;;9.52;6.10;;;23.20;99.90;;;;;;5074884;28;20056;-63
2023/08/22 06:55:05;;;;;;;9.52;6.70;;;22.80;99.90;;;;;;5057030;28;20456;-62
2023/08/22 06:57:32;;;;;;;11.30;6.10;;;22.90;99.90;;;;;;5074576;28;20060;-62
2023/08/22 06:59:58;;;;;;;10.82;5.78;;;23.20;99.90;;;;;;5074968;28;20056;-61
2023/08/22 07:02:26;;;;;;;10.43;6.57;;;23.20;99.90;;;;;;5074254;28;20052;-62
2023/08/22 07:04:53;;;;;;;11.60;6.07;;;23.00;99.90;;;;;;5056024;28;20106;-62
2023/08/22 07:07:20;;;;;;;7.90;5.65;;;22.90;99.90;;;;;;5074383;28;20060;-63
2023/08/22 07:09:49;;;;;;;9.60;5.97;;;23.10;99.90;;;;;;5075142;28;20048;-62
2023/08/22 07:12:15;;;;;;;10.40;5.88;;;23.40;99.90;;;;;;5074542;28;20059;-63
2023/08/22 07:14:42;;;;;;;8.05;5.85;;;23.90;99.90;;;;;;5073622;28;20373;-62
2023/08/22 07:17:09;;;;;;;9.18;5.32;;;24.40;99.90;;;;;;5056760;28;20044;-62
2023/08/22 07:19:35;;;;;;;8.73;5.90;;;24.90;99.90;;;;;;5074337;28;20049;-62
2023/08/22 07:22:01;;;;;;;8.00;5.90;;;25.00;99.90;;;;;;5073576;28;20048;-62
2023/08/22 07:24:27;;;;;;;8.80;5.82;;;24.90;99.90;;;;;;5073740;28;20053;-63
2023/08/22 07:26:53;;;;;;;6.60;5.03;;;24.60;99.90;;;;;;5074009;28;20102;-62
2023/08/22 07:29:20;;;;;;;8.05;5.38;;;24.20;99.90;;;;;;5073827;28;20052;-63
2023/08/22 07:31:46;;;;;;;8.27;5.10;;;24.00;99.90;;;;;;5074278;28;20113;-62
2023/08/22 07:34:13;;;;;;;8.20;5.05;;;23.80;99.90;;;;;;5055476;28;20052;-62
2023/08/22 07:36:40;;;;;;;8.05;4.22;;;23.70;99.90;;;;;;5055961;28;20048;-62
2023/08/22 07:39:06;;;;;;;7.45;4.80;;;23.50;99.90;;;;;;5073359;28;20056;-64
2023/08/22 07:41:32;;;;;;;6.82;4.78;;;23.40;99.90;;;;;;5064958;28;20468;-62
2023/08/22 07:43:59;;;;;;;8.73;4.60;;;23.40;99.90;;;;;;5054238;28;20117;-62
2023/08/22 07:46:26;;;;;;;9.05;4.18;;;23.50;99.90;;;;;;5053629;28;20103;-61
2023/08/22 07:48:52;;;;;;;7.50;4.00;;;23.80;99.90;;;;;;5053719;28;20098;-62
2023/08/22 07:51:18;;;;;;;5.05;3.60;;;23.80;99.90;;;;;;5059811;28;20117;-61
2023/08/22 07:53:54;;;;;;;7.55;4.15;;;24.00;99.90;;;;;;5073593;28;20059;-62
2023/08/22 07:56:21;;;;;;;6.63;4.60;;;23.90;99.90;;;;;;5073215;28;20063;-61
2023/08/22 07:58:48;;;;;;;6.85;4.05;;;23.80;99.90;;;;;;5073739;28;20364;-61
2023/08/22 08:01:15;;;;;;;5.22;2.67;;;23.90;99.90;;;;;;5066407;28;20048;-62
2023/08/22 08:03:41;;;;;;;4.90;3.00;;;23.70;99.90;;;;;;5073191;28;20487;-61
2023/08/22 08:06:07;;;;;;;4.45;3.08;;;23.70;99.90;;;;;;5072583;28;20354;-61
2023/08/22 08:08:34;;;;;;;4.57;2.50;;;23.50;99.90;;;;;;5073396;28;20400;-62
2023/08/22 08:11:00;;;;;;;6.63;2.90;;;23.60;99.90;;;;;;5076954;28;20115;-62
2023/08/22 08:13:27;;;;;;;5.68;3.33;;;23.50;99.90;;;;;;5075780;28;20055;-61
2023/08/22 08:15:53;;;;;;;4.22;2.75;;;23.30;99.90;;;;;;5093064;28;20052;-62
2023/08/22 08:18:21;;;;;;;6.10;3.38;;;23.30;99.90;;;;;;5075547;28;20059;-62
2023/08/22 08:20:47;;;;;;;5.45;3.05;;;23.10;99.90;;;;;;5073553;28;20146;-62
2023/08/22 08:23:13;;;;;;;5.78;3.67;;;23.20;99.90;;;;;;5073072;28;20106;-61
2023/08/22 08:25:39;;;;;;;6.32;3.60;;;23.20;99.90;;;;;;5072525;28;20066;-62
2023/08/22 08:28:06;;;;;;;5.60;3.60;;;23.30;99.90;;;;;;5072892;28;20056;-62
2023/08/22 08:30:33;;;;;;;7.50;4.32;;;23.40;99.90;;;;;;5055459;28;20052;-62
2023/08/22 08:33:03;;;;;;;7.47;4.38;;;23.30;99.90;;;;;;5091894;28;20048;-62
2023/08/22 08:35:30;;;;;;;7.20;4.30;;;23.40;99.90;;;;;;5092663;28;20052;-62
2023/08/22 08:37:57;;;;;;;6.13;5.05;;;23.30;99.90;;;;;;5074882;28;20101;-62
2023/08/22 08:40:23;;;;;;;9.02;5.05;;;23.30;99.90;;;;;;5093098;28;20044;-62
2023/08/22 08:42:50;;;;;;;10.02;5.38;;;23.20;99.90;;;;;;5056426;28;20071;-62
2023/08/22 08:45:16;;;;;;;7.82;5.10;;;23.20;99.90;;;;;;5038323;28;20059;-62
2023/08/22 08:47:45;;;;;;;6.50;5.13;;;23.20;99.90;;;;;;5038409;28;20425;-62
2023/08/22 08:50:12;;;;;;;7.20;5.05;;;23.20;99.90;;;;;;5054912;28;20120;-62
2023/08/22 08:52:38;;;;;;;9.55;5.38;;;23.10;99.90;;;;;;5090220;28;20059;-62
2023/08/22 08:55:05;;;;;;;12.88;5.57;;;23.20;99.90;;;;;;5092521;28;20050;-62
2023/08/22 08:57:32;;;;;;;8.32;4.75;;;23.40;99.90;;;;;;5092678;28;20074;-61
2023/08/22 09:00:02;;;;;;;8.05;4.68;;;23.40;99.90;;;;;;5092691;28;20036;-62
2023/08/22 09:02:28;;;;;;;8.43;4.90;;;23.40;99.90;;;;;;5059388;28;20048;-61
2023/08/22 09:04:55;;;;;;;6.72;4.47;;;23.50;99.90;;;;;;5037787;28;20049;-62
2023/08/22 09:07:21;;;;;;;7.53;4.30;;;23.50;99.90;;;;;;5054794;28;20040;-62
2023/08/22 09:09:47;;;;;;;6.40;3.95;;;23.60;99.90;;;;;;5054994;28;20049;-62
2023/08/22 09:12:14;;;;;;;6.70;4.10;;;23.60;99.90;;;;;;5085199;28;20479;-62
2023/08/22 09:14:45;;;;;;;7.20;4.03;;;23.50;99.90;;;;;;5074519;28;20052;-62
2023/08/22 09:17:15;;;;;;;;;;;23.40;99.90;;;;;;5092974;28;20054;-62
2023/08/22 09:19:42;;;;;;;6.28;3.58;;;23.20;99.90;;;;;;5092408;28;19971;-62
2023/08/22 09:22:14;;;;;;;7.85;3.53;;;23.30;99.90;;;;;;5079297;28;20052;-62
2023/08/22 09:24:54;;;;;;;4.68;3.25;;;23.40;99.90;;;;;;5054182;28;20105;-62
2023/08/22 09:27:29;;;;;;;7.28;3.42;;;23.30;99.90;;;;;;5054402;28;20377;-62
2023/08/22 09:30:04;;;;;;;8.05;3.20;;;23.40;99.90;;;;;;5054666;28;20102;-62
2023/08/22 09:32:32;;;;;;;8.93;3.75;;;23.50;99.90;;;;;;5069345;28;20441;-62
2023/08/22 09:35:02;;;;;;;5.80;3.08;;;23.50;99.90;;;;;;5073685;28;20044;-61
2023/08/22 09:37:36;;;;;;;7.65;3.60;;;23.60;99.90;;;;;;5074035;28;20055;-63
2023/08/22 09:40:08;;;;;;;7.30;3.80;;;23.70;99.90;;;;;;5091957;28;20498;-62
2023/08/22 09:42:38;;;;;;;7.30;3.25;;;23.70;99.90;;;;;;5058901;28;20110;-62
2023/08/22 09:45:06;;;;;;;7.90;3.13;;;23.80;99.90;;;;;;5074006;28;20059;-61
2023/08/22 09:47:39;;;;;;;5.30;2.83;;;23.90;99.90;;;;;;5060541;28;20056;-62
2023/08/22 09:50:07;;;;;;;4.47;2.25;;;24.00;99.90;;;;;;5078021;28;20110;-62
2023/08/22 09:52:38;;;;;;;4.63;2.67;;;23.90;99.90;;;;;;5071507;28;20052;-62
2023/08/22 09:55:07;;;;;;;4.43;2.47;;;23.80;99.90;;;;;;5098451;28;20055;-62
2023/08/22 09:57:34;;;;;;;4.50;2.35;;;23.90;99.90;;;;;;5080883;28;20480;-62
2023/08/22 10:00:02;;;;;;;5.00;2.60;;;23.90;99.90;;;;;;5080676;28;20039;-62
2023/08/22 10:02:32;;;;;;;4.53;2.45;;;24.00;99.90;;;;;;5065707;28;20206;-61
2023/08/22 10:05:00;;;;;;;4.28;2.30;;;24.30;99.90;;;;;;5060161;28;20357;-62
2023/08/22 10:07:26;;;;;;;4.20;2.05;;;24.50;99.90;;;;;;5060432;28;20056;-62
2023/08/22 10:09:54;;;;;;;4.68;1.90;;;24.70;99.90;;;;;;5060900;28;20048;-62
2023/08/22 10:12:21;;;;;;;5.07;2.55;;;24.50;99.90;;;;;;5066481;28;20368;-62
2023/08/22 10:14:56;;;;;;;5.05;2.45;;;24.40;99.90;;;;;;5097965;28;20065;-62
2023/08/22 10:17:26;;;;;;;3.80;2.00;;;24.40;99.90;;;;;;5064106;28;20060;-63
2023/08/22 10:20:05;;;;;;;6.70;2.08;;;24.20;99.90;;;;;;5080429;28;20048;-61
2023/08/22 10:22:35;;;;;;;5.80;2.05;;;24.20;99.90;;;;;;5082760;28;20106;-62
2023/08/22 10:25:04;;;;;;;4.55;1.98;;;24.20;99.90;;;;;;5077792;28;20419;-62
2023/08/22 10:27:30;;;;;;;3.80;2.15;;;24.20;99.90;;;;;;5077941;28;20055;-62
2023/08/22 10:30:12;;;;;;;5.30;2.00;;;24.20;99.90;;;;;;5059902;28;20056;-62
2023/08/22 10:32:40;;;;;;;5.65;2.30;;;24.30;99.90;;;;;;5077816;28;20480;-62
2023/08/22 10:35:10;;;;;;;6.35;2.25;;;24.30;99.90;;;;;;5059694;28;20044;-62
2023/08/22 10:37:46;;;;;;;4.35;2.33;;;24.50;99.90;;;;;;5077415;28;20366;-62
2023/08/22 10:40:27;;;;;;;6.90;2.80;;;24.50;99.90;;;;;;5078047;28;20044;-62
2023/08/22 10:43:04;;;;;;;6.32;2.67;;;24.50;99.90;;;;;;5079510;28;20369;-61
2023/08/22 10:45:41;;;;;;;6.78;3.42;;;24.50;99.90;;;;;;5059623;28;20044;-62
2023/08/22 10:48:10;;;;;;;;;;;24.50;99.90;;;;;;5060505;28;20048;-62
2023/08/22 10:50:38;;;;;;;4.57;2.60;;;24.60;99.90;;;;;;5077860;28;19928;-63
2023/08/22 10:53:44;;;;;;;5.20;2.30;;;24.60;99.90;;;;;;5026405;28;20064;-62
2023/08/22 10:56:25;;;;;;;3.65;2.40;;;24.40;99.90;;;;;;5065147;28;20060;-62
2023/08/22 10:58:59;;;;;;;6.97;2.72;;;24.40;99.90;;;;;;5094580;28;20415;-62
2023/08/22 11:01:26;;;;;;;6.63;3.42;;;24.60;99.90;;;;;;5070665;28;20037;-62
2023/08/22 11:03:56;;;;;;;5.25;2.88;;;24.80;99.90;;;;;;5056332;28;20350;-62
2023/08/22 11:06:23;;;;;;;6.15;2.70;;;24.70;99.90;;;;;;5074309;28;20041;-62
2023/08/22 11:08:50;;;;;;;5.72;2.38;;;24.80;99.90;;;;;;5074244;28;20381;-63
2023/08/22 11:11:19;;;;;;;6.30;2.92;;;24.70;99.90;;;;;;5074613;28;20101;-62
2023/08/22 11:13:46;;;;;;;5.55;2.63;;;24.80;99.90;;;;;;5074421;28;20078;-62
2023/08/22 11:16:17;;;;;;;7.30;3.50;;;25.00;99.90;;;;;;5074321;28;20049;-62
2023/08/22 11:18:54;;;;;;;5.72;3.35;;;24.90;99.90;;;;;;5094512;28;20059;-62
2023/08/22 11:21:20;;;;;;;5.13;3.58;;;25.00;99.90;;;;;;5089135;28;20056;-63
2023/08/22 11:23:47;;;;;;;5.25;3.28;;;25.10;99.90;;;;;;5074216;28;20048;-63
2023/08/22 11:26:20;;;;;;;6.47;3.30;;;25.10;99.90;;;;;;5074267;28;20155;-62
2023/08/22 11:28:55;;;;;;;8.48;3.92;;;25.20;99.90;;;;;;5056612;28;20056;-62
2023/08/22 11:31:22;;;;;;;5.65;3.40;;;25.40;99.90;;;;;;5057590;28;20102;-62
2023/08/22 11:33:49;;;;;;;6.13;3.40;;;25.30;99.90;;;;;;5072472;28;20065;-63
2023/08/22 11:36:16;;;;;;;9.40;3.83;;;25.40;99.90;;;;;;5073949;28;20048;-61
2023/08/22 11:38:47;;;;;;;8.48;4.50;;;25.40;99.90;;;;;;5073221;28;20048;-62
2023/08/22 11:41:14;;;;;;;;;;;25.40;99.90;;;;;;5074406;28;20099;-63
2023/08/22 11:43:50;;;;;;;7.75;4.30;;;25.40;99.90;;;;;;5073731;28;19924;-63
2023/08/22 11:46:20;;;;;;;7.00;4.63;;;25.50;99.90;;;;;;5056883;28;20053;-62
2023/08/22 11:48:49;;;;;;;9.85;5.22;;;25.70;99.90;;;;;;5056167;28;20048;-62
2023/08/22 11:51:20;;;;;;;11.73;5.68;;;25.70;99.90;;;;;;5073165;28;20044;-62
2023/08/22 11:53:48;;;;;;;9.48;4.82;;;25.60;99.90;;;;;;5073346;28;20052;-63
2023/08/22 11:56:18;;;;;;;6.18;4.22;;;25.60;99.90;;;;;;5039375;28;20119;-62
2023/08/22 11:58:52;;;;;;;9.40;5.75;;;25.60;99.90;;;;;;5073810;28;20112;-62
2023/08/22 12:01:23;;;;;;;7.28;6.03;;;25.50;99.90;;;;;;5073259;28;20502;-64
2023/08/22 12:03:54;;;;;;;8.65;5.60;;;25.40;99.90;;;;;;5054956;28;20472;-63
2023/08/22 12:06:21;;;;;;;8.55;4.32;;;25.50;99.90;;;;;;5055424;28;20114;-63
2023/08/22 12:09:00;;;;;;;7.40;3.92;;;25.50;99.90;;;;;;5072499;28;20048;-63
2023/08/22 12:11:28;;;;;;;6.97;4.07;;;25.60;99.90;;;;;;5072970;28;20051;-63
2023/08/22 12:13:54;;;;;;;11.25;5.15;;;25.70;99.90;;;;;;5072848;28;20048;-63
2023/08/22 12:16:20;;;;;;;10.55;5.63;;;25.90;99.90;;;;;;5073185;28;20048;-62
2023/08/22 12:18:47;;;;;;;8.95;5.45;;;25.60;99.90;;;;;;5073152;28;20056;-62
2023/08/22 12:21:14;;;;;;;6.80;4.13;;;25.70;99.90;;;;;;5073108;28;20056;-62
2023/08/22 12:23:41;;;;;;;5.53;3.65;;;25.70;99.90;;;;;;5072665;28;20078;-63
2023/08/22 12:26:07;;;;;;;5.70;3.22;;;26.00;99.90;;;;;;5038778;28;20053;-63
2023/08/22 12:28:33;;;;;;;8.40;3.53;;;26.00;99.90;;;;;;5072644;28;20453;-63
2023/08/22 12:30:59;;;;;;;8.32;4.22;;;26.10;99.90;;;;;;5072478;28;20036;-62
2023/08/22 12:33:26;;;;;;;6.93;3.80;;;26.20;99.90;;;;;;5055190;28;20061;-62
2023/08/22 12:35:52;;;;;;;6.90;3.60;;;26.10;99.90;;;;;;5054444;28;20055;-62
2023/08/22 12:38:18;;;;;;;7.60;3.45;;;26.00;99.90;;;;;;5046854;28;20420;-63
2023/08/22 12:40:45;;;;;;;7.00;3.58;;;26.20;99.90;;;;;;5052556;28;20355;-62
2023/08/22 12:43:11;;;;;;;4.65;2.70;;;26.30;99.90;;;;;;5052845;28;20048;-62
2023/08/22 12:45:37;;;;;;;7.10;4.15;;;26.20;99.90;;;;;;5051727;28;20430;-62
2023/08/22 12:48:05;;;;;;;7.75;4.18;;;26.20;99.90;;;;;;5018036;28;20049;-63